Time;durP1;ratioP1;P1;durP2;ratioP2;P2;SDS_P1;SDS_P2;PMS_P1;PMS_P2;Temp;Humidity;BMP_temperature;BMP_pressure;BME280_temperature;BME280_humidity;BME280_pressure;Samples;Min_cycle;Max_cycle;Signal;HPM_P1;HPM_P2
2023/04/05 00:59:29;;;;;;;7.80;5.00;;;1.40;99.90;;;;;;5014262;28;20204;-91
2023/04/05 01:07:10;;;;;;;6.07;4.40;;;1.40;99.90;;;;;;4983347;28;20254;-91
2023/04/05 01:09:44;;;;;;;7.03;5.37;;;1.40;99.90;;;;;;4978723;28;20197;-91
2023/04/05 01:12:15;;;;;;;7.07;5.13;;;1.40;99.90;;;;;;5012845;28;20233;-91
2023/04/05 01:14:52;;;;;;;7.37;4.83;;;1.30;99.90;;;;;;5012406;28;20186;-91
2023/04/05 01:17:21;;;;;;;6.27;4.73;;;1.30;99.90;;;;;;5012906;28;20211;-90
2023/04/05 01:19:53;;;;;;;7.07;4.90;;;1.20;99.90;;;;;;5012784;28;20178;-91
2023/04/05 01:22:57;;;;;;;6.17;4.63;;;1.20;99.90;;;;;;5012513;28;20247;-91
2023/04/05 01:25:42;;;;;;;8.17;5.03;;;1.10;99.90;;;;;;5014133;28;20259;-91
2023/04/05 01:28:37;;;;;;;7.00;5.00;;;1.10;99.90;;;;;;5012691;28;20191;-91
2023/04/05 01:31:11;;;;;;;7.60;5.30;;;1.10;99.90;;;;;;5012824;28;20190;-90
2023/04/05 01:33:41;;;;;;;6.57;5.20;;;1.20;99.90;;;;;;5014665;28;20210;-91
2023/04/05 01:36:20;;;;;;;7.70;5.10;;;1.20;99.90;;;;;;5008528;28;20196;-90
2023/04/05 01:38:49;;;;;;;5.97;4.43;;;1.30;99.90;;;;;;4979785;28;20234;-90
2023/04/05 01:41:15;;;;;;;6.33;4.67;;;1.30;99.90;;;;;;5013703;28;20233;-91
2023/04/05 01:43:41;;;;;;;6.07;5.37;;;1.30;99.90;;;;;;5012153;28;20191;-91
2023/04/05 01:46:07;;;;;;;7.03;5.37;;;1.30;99.90;;;;;;4996104;28;20201;-91
2023/04/05 01:48:33;;;;;;;7.23;5.40;;;1.30;99.90;;;;;;4996102;28;20235;-91
2023/04/05 01:50:59;;;;;;;8.50;6.30;;;1.30;99.90;;;;;;4996768;28;20188;-91
2023/04/05 01:53:25;;;;;;;9.57;6.23;;;1.30;99.90;;;;;;5011886;28;20210;-91
2023/04/05 01:55:51;;;;;;;6.97;5.53;;;1.30;99.90;;;;;;4996283;28;20206;-91
2023/04/05 01:58:17;;;;;;;6.43;5.13;;;1.30;99.90;;;;;;4995860;28;20166;-91
2023/04/05 02:00:43;;;;;;;7.67;4.73;;;1.20;99.90;;;;;;5012837;28;20230;-91
2023/04/05 02:03:09;;;;;;;8.60;4.60;;;1.00;99.90;;;;;;4996466;28;20181;-91
2023/04/05 02:05:35;;;;;;;6.73;5.17;;;0.90;99.90;;;;;;5013315;28;20207;-90
2023/04/05 02:08:01;;;;;;;5.70;4.77;;;0.80;99.90;;;;;;5015991;28;20179;-91
2023/04/05 02:10:27;;;;;;;8.37;5.40;;;0.80;99.90;;;;;;5015828;28;20714;-91
2023/04/05 02:12:53;;;;;;;6.97;4.90;;;0.70;99.90;;;;;;5015297;28;20222;-91
2023/04/05 02:15:19;;;;;;;6.67;4.70;;;0.70;99.90;;;;;;5013594;28;20179;-91
2023/04/05 02:17:45;;;;;;;8.00;5.13;;;0.70;99.90;;;;;;5015194;28;20186;-91
2023/04/05 02:20:13;;;;;;;8.17;5.23;;;0.70;99.90;;;;;;5015219;28;20202;-91
2023/04/05 02:22:40;;;;;;;6.60;4.87;;;0.70;99.90;;;;;;5015250;28;20188;-91
2023/04/05 02:25:09;;;;;;;6.20;5.00;;;0.60;99.90;;;;;;5014351;28;20194;-90
2023/04/05 02:27:37;;;;;;;8.20;4.87;;;0.60;99.90;;;;;;5014741;28;20236;-90
2023/04/05 02:30:04;;;;;;;6.27;4.80;;;0.60;99.90;;;;;;5014837;28;20210;-91
2023/04/05 02:32:30;;;;;;;7.10;4.53;;;0.60;99.90;;;;;;5014617;28;20208;-91
2023/04/05 02:34:57;;;;;;;7.37;5.07;;;0.60;99.90;;;;;;5014382;28;20270;-91
2023/04/05 02:37:24;;;;;;;5.80;5.10;;;0.60;99.90;;;;;;4997375;28;20198;-90
2023/04/05 02:39:51;;;;;;;8.93;5.63;;;0.60;99.90;;;;;;5014598;28;20186;-91
2023/04/05 02:42:17;;;;;;;7.33;5.90;;;0.50;99.90;;;;;;5014433;28;20179;-91
2023/04/05 02:44:43;;;;;;;8.63;4.73;;;0.50;99.90;;;;;;5014298;28;20187;-91
2023/04/05 02:47:20;;;;;;;9.23;5.33;;;0.50;99.90;;;;;;5014965;28;20234;-91
2023/04/05 02:49:50;;;;;;;10.00;5.93;;;0.40;99.90;;;;;;5014769;28;20183;-91
2023/04/05 02:52:16;;;;;;;8.60;5.97;;;0.30;99.90;;;;;;5014673;28;20234;-91
2023/04/05 02:54:46;;;;;;;7.83;5.53;;;0.30;99.90;;;;;;5014407;28;20183;-90
2023/04/05 02:57:15;;;;;;;6.77;5.73;;;0.30;99.90;;;;;;5014556;28;20191;-90
2023/04/05 02:59:50;;;;;;;8.70;6.10;;;0.30;99.90;;;;;;5014583;28;20185;-91
2023/04/05 03:02:16;;;;;;;11.50;6.33;;;0.20;99.90;;;;;;5014623;28;20253;-90
2023/04/05 03:04:43;;;;;;;9.17;6.27;;;0.20;99.90;;;;;;5010665;28;20179;-90
2023/04/05 03:07:17;;;;;;;6.93;5.60;;;0.20;99.90;;;;;;5014323;28;20252;-90
2023/04/05 03:09:45;;;;;;;8.20;6.17;;;0.20;99.90;;;;;;5014283;28;20711;-91
2023/04/05 03:12:12;;;;;;;8.77;5.83;;;0.10;99.90;;;;;;5014404;28;20752;-90
2023/04/05 03:14:41;;;;;;;7.43;5.80;;;0.10;99.90;;;;;;5014390;28;20202;-91
2023/04/05 03:17:09;;;;;;;8.53;5.67;;;0.00;99.90;;;;;;5014067;28;20261;-90
2023/04/05 03:19:39;;;;;;;9.63;5.67;;;0.00;99.90;;;;;;5018261;28;20202;-90
2023/04/05 03:22:13;;;;;;;7.87;5.57;;;-0.10;99.90;;;;;;5018065;28;20182;-91
2023/04/05 03:24:41;;;;;;;6.83;5.63;;;-0.20;99.90;;;;;;5017823;28;20209;-90
2023/04/05 03:27:09;;;;;;;10.47;5.53;;;-0.20;99.90;;;;;;5018508;28;20252;-90
2023/04/05 03:29:53;;;;;;;6.80;5.20;;;-0.10;99.90;;;;;;5018242;28;20290;-91
2023/04/05 03:32:19;;;;;;;8.07;5.57;;;-0.10;99.90;;;;;;5018199;28;20234;-90
2023/04/05 03:34:51;;;;;;;9.33;6.07;;;-0.10;99.90;;;;;;5018006;28;20213;-91
2023/04/05 03:37:18;;;;;;;6.70;5.03;;;-0.10;99.90;;;;;;5017780;28;20191;-91
2023/04/05 03:39:50;;;;;;;7.70;5.73;;;-0.10;99.90;;;;;;5018171;28;20288;-90
2023/04/05 03:42:17;;;;;;;8.73;5.80;;;-0.10;99.90;;;;;;5017894;28;20262;-90
2023/04/05 03:44:43;;;;;;;7.20;5.83;;;-0.10;99.90;;;;;;5018182;28;20183;-91
2023/04/05 03:47:09;;;;;;;7.27;5.80;;;-0.20;99.90;;;;;;5017831;28;20266;-90
2023/04/05 03:49:37;;;;;;;9.70;5.73;;;-0.20;99.90;;;;;;5017743;28;20175;-91
2023/04/05 03:52:03;;;;;;;6.80;5.47;;;-0.20;99.90;;;;;;5018117;28;20256;-91
2023/04/05 03:54:29;;;;;;;8.80;5.97;;;-0.20;99.90;;;;;;5017679;28;20232;-90
2023/04/05 03:56:58;;;;;;;7.53;5.50;;;-0.20;99.90;;;;;;5017611;28;20218;-91
2023/04/05 03:59:24;;;;;;;7.83;5.50;;;-0.20;99.90;;;;;;5017476;28;20662;-90
2023/04/05 04:01:50;;;;;;;7.30;5.30;;;-0.30;99.90;;;;;;5017730;28;20213;-91
2023/04/05 04:04:18;;;;;;;9.60;5.80;;;-0.20;99.90;;;;;;5018143;28;20197;-90
2023/04/05 04:06:46;;;;;;;11.23;7.23;;;-0.20;99.90;;;;;;5001526;28;20199;-91
2023/04/05 04:09:15;;;;;;;10.87;7.60;;;-0.30;99.90;;;;;;5017179;28;20200;-91
2023/04/05 04:11:41;;;;;;;12.00;7.97;;;-0.30;99.90;;;;;;5026417;28;20239;-90
2023/04/05 04:14:07;;;;;;;13.53;7.83;;;-0.30;99.90;;;;;;5027609;28;20178;-91
2023/04/05 04:16:38;;;;;;;7.77;6.13;;;-0.30;99.90;;;;;;5027870;28;20209;-91
2023/04/05 04:19:26;;;;;;;8.83;6.60;;;-0.40;99.90;;;;;;5024155;28;20187;-90
2023/04/05 04:22:08;;;;;;;9.73;7.30;;;-0.40;99.90;;;;;;5018134;28;20178;-91
2023/04/05 04:24:54;;;;;;;12.03;7.57;;;-0.40;99.90;;;;;;5020104;28;20255;-90
2023/04/05 04:27:42;;;;;;;10.00;6.67;;;-0.40;99.90;;;;;;5025663;28;20258;-92
2023/04/05 04:30:27;;;;;;;11.73;6.77;;;-0.50;99.90;;;;;;5044939;28;20337;-91
2023/04/05 04:32:56;;;;;;;8.23;6.40;;;-0.40;99.90;;;;;;5019402;28;20241;-90
2023/04/05 04:35:45;;;;;;;9.40;6.07;;;-0.40;99.90;;;;;;5019786;28;20670;-90
2023/04/05 04:38:17;;;;;;;10.27;6.27;;;-0.40;99.90;;;;;;5017821;28;20186;-91
2023/04/05 04:41:08;;;;;;;8.50;6.47;;;-0.40;99.90;;;;;;5003717;28;20174;-91
2023/04/05 04:43:42;;;;;;;10.67;6.63;;;-0.30;99.90;;;;;;5034015;28;20166;-90
2023/04/05 04:46:17;;;;;;;12.63;7.10;;;-0.30;99.90;;;;;;5034708;28;20198;-91
2023/04/05 04:49:10;;;;;;;11.37;7.63;;;-0.30;99.90;;;;;;5004930;28;20206;-91
2023/04/05 04:51:39;;;;;;;16.87;8.93;;;-0.40;99.90;;;;;;5016589;28;20210;-90
2023/04/05 04:54:06;;;;;;;14.27;8.20;;;-0.40;99.90;;;;;;5016877;28;20174;-90
2023/04/05 04:56:32;;;;;;;14.07;7.60;;;-0.50;99.90;;;;;;5016853;28;20197;-90
2023/04/05 04:58:59;;;;;;;9.67;6.20;;;-0.50;99.90;;;;;;5016227;28;20650;-90
2023/04/05 05:01:25;;;;;;;10.00;6.70;;;-0.50;99.90;;;;;;5016296;28;20185;-91
2023/04/05 05:03:51;;;;;;;9.70;6.10;;;-0.60;99.90;;;;;;5017012;28;20178;-90
2023/04/05 05:06:26;;;;;;;8.40;6.10;;;-0.70;99.90;;;;;;5016791;28;20223;-91
2023/04/05 05:08:52;;;;;;;10.37;6.80;;;-0.70;99.90;;;;;;5017043;28;20229;-90
2023/04/05 05:11:18;;;;;;;9.50;6.73;;;-0.70;99.90;;;;;;5016936;28;20175;-90
2023/04/05 05:13:44;;;;;;;11.33;7.37;;;-0.80;99.90;;;;;;5016226;28;20248;-90
2023/04/05 05:16:17;;;;;;;9.37;6.37;;;-0.80;99.90;;;;;;5016860;28;20191;-91
2023/04/05 05:18:46;;;;;;;9.53;6.03;;;-0.90;99.90;;;;;;5016796;28;20179;-90
2023/04/05 05:21:54;;;;;;;10.00;7.07;;;-0.90;99.90;;;;;;5000705;28;20179;-90
2023/04/05 05:33:24;;;;;;;8.43;6.27;;;-1.20;99.90;;;;;;4877891;29;20223;-90
2023/04/05 05:35:51;;;;;;;10.33;7.40;;;-1.20;99.90;;;;;;4910928;28;20212;-91
2023/04/05 05:38:17;;;;;;;11.03;7.00;;;-1.20;99.90;;;;;;4981169;28;20190;-91
2023/04/05 05:40:43;;;;;;;10.40;6.97;;;-1.10;99.90;;;;;;5012134;28;20167;-90
2023/04/05 05:43:09;;;;;;;10.80;7.50;;;-1.00;99.90;;;;;;5029523;28;20186;-91
2023/04/05 05:45:36;;;;;;;10.97;8.10;;;-0.90;99.90;;;;;;5012875;28;20203;-90
2023/04/05 05:48:02;;;;;;;15.37;7.80;;;-0.80;99.90;;;;;;4996506;28;20254;-90
2023/04/05 05:50:31;;;;;;;12.90;9.03;;;-0.70;99.90;;;;;;4996336;28;20283;-91
2023/04/05 05:53:00;;;;;;;14.57;9.67;;;-0.50;99.90;;;;;;4996110;28;20290;-91
2023/04/05 05:55:26;;;;;;;14.33;8.90;;;-0.40;99.90;;;;;;5012770;28;20207;-91
2023/04/05 05:57:53;;;;;;;12.80;8.27;;;-0.20;99.90;;;;;;5013878;28;20208;-91
2023/04/05 06:00:20;;;;;;;10.73;7.87;;;-0.10;99.90;;;;;;5012691;28;20175;-90
2023/04/05 06:02:45;;;;;;;11.93;8.33;;;0.00;99.90;;;;;;4996633;28;20183;-85
2023/04/05 06:05:11;;;;;;;10.83;8.00;;;0.20;99.90;;;;;;5011208;28;20190;-92
2023/04/05 06:07:38;;;;;;;13.67;8.20;;;0.30;99.90;;;;;;4999934;28;20270;-90
2023/04/05 06:10:05;;;;;;;13.10;8.00;;;0.30;99.90;;;;;;5015235;28;20268;-89
2023/04/05 06:12:31;;;;;;;11.23;7.67;;;0.40;99.90;;;;;;5016305;28;20210;-91
2023/04/05 06:14:57;;;;;;;10.17;7.53;;;0.50;99.90;;;;;;4999594;28;20177;-90
2023/04/05 06:17:23;;;;;;;10.53;7.30;;;0.50;99.90;;;;;;5011982;28;20287;-89
2023/04/05 06:19:48;;;;;;;10.77;7.13;;;0.60;99.90;;;;;;4983088;28;20180;-89
2023/04/05 06:22:15;;;;;;;11.17;6.83;;;0.70;99.90;;;;;;4998894;28;20214;-90
2023/04/05 06:24:41;;;;;;;7.97;6.30;;;0.70;99.90;;;;;;5032811;28;20264;-89
2023/04/05 06:27:07;;;;;;;7.83;6.53;;;0.80;99.90;;;;;;4998524;28;20282;-90
2023/04/05 06:29:32;;;;;;;13.07;7.23;;;1.00;99.90;;;;;;4998837;28;20180;-90
2023/04/05 06:31:58;;;;;;;11.93;7.07;;;1.10;99.90;;;;;;5032325;28;20231;-89
2023/04/05 06:34:24;;;;;;;9.97;6.53;;;1.20;99.90;;;;;;5031089;28;20168;-89
2023/04/05 06:36:50;;;;;;;8.90;7.00;;;1.20;99.90;;;;;;5005729;28;20204;-89
2023/04/05 06:39:16;;;;;;;10.27;6.87;;;1.20;99.90;;;;;;4995423;28;20186;-89
2023/04/05 06:41:42;;;;;;;9.70;6.77;;;1.40;99.90;;;;;;4995348;28;20296;-89
2023/04/05 06:44:08;;;;;;;9.67;7.17;;;1.50;99.90;;;;;;4994898;28;20240;-89
2023/04/05 06:46:34;;;;;;;8.60;6.83;;;1.60;99.90;;;;;;5011490;28;20290;-89
2023/04/05 06:49:00;;;;;;;12.60;7.03;;;1.60;99.90;;;;;;5012743;28;20185;-89
2023/04/05 06:51:27;;;;;;;9.83;6.30;;;1.70;99.90;;;;;;4994547;28;20184;-89
2023/04/05 06:53:54;;;;;;;9.57;6.33;;;1.80;99.90;;;;;;4994971;28;20197;-90
2023/04/05 06:56:20;;;;;;;8.50;6.67;;;1.80;99.90;;;;;;4994701;28;20231;-89
2023/04/05 06:58:46;;;;;;;10.80;6.87;;;1.90;99.90;;;;;;5012176;28;20191;-89
2023/04/05 07:01:12;;;;;;;10.83;7.30;;;2.00;99.90;;;;;;4994707;28;20216;-89
2023/04/05 07:03:38;;;;;;;10.87;7.10;;;2.10;99.90;;;;;;4994857;28;20300;-89
2023/04/05 07:06:05;;;;;;;11.00;6.60;;;2.20;99.90;;;;;;4994787;28;20230;-89
2023/04/05 07:08:32;;;;;;;8.67;6.90;;;2.20;99.90;;;;;;4978595;28;20175;-89
2023/04/05 07:10:58;;;;;;;10.77;7.10;;;2.30;99.90;;;;;;4994919;28;20190;-89
2023/04/05 07:13:24;;;;;;;9.60;6.33;;;2.40;99.90;;;;;;4994718;28;20209;-89
2023/04/05 07:15:51;;;;;;;7.90;6.60;;;2.40;99.90;;;;;;4978511;28;20207;-89
2023/04/05 07:18:18;;;;;;;10.23;7.40;;;2.40;99.90;;;;;;4994548;28;20179;-89
2023/04/05 07:20:47;;;;;;;11.77;8.00;;;2.40;99.90;;;;;;4978261;28;20247;-90
2023/04/05 07:23:13;;;;;;;10.37;7.37;;;2.40;99.90;;;;;;5012373;28;20201;-89
2023/04/05 07:25:40;;;;;;;11.63;7.67;;;2.40;99.90;;;;;;4994603;28;20230;-89
2023/04/05 07:28:06;;;;;;;10.87;7.27;;;2.50;99.90;;;;;;4994826;28;20243;-89
2023/04/05 07:30:32;;;;;;;9.53;6.77;;;2.60;99.90;;;;;;4978331;28;20186;-89
2023/04/05 07:32:58;;;;;;;11.20;7.10;;;2.80;99.90;;;;;;4978449;28;20206;-90
2023/04/05 07:35:24;;;;;;;10.67;8.10;;;2.90;99.90;;;;;;4978452;28;20214;-89
2023/04/05 07:37:51;;;;;;;9.20;7.10;;;3.10;99.90;;;;;;4991914;28;20173;-90
2023/04/05 07:40:17;;;;;;;8.63;7.10;;;3.30;99.90;;;;;;5031563;28;20186;-89
2023/04/05 07:42:43;;;;;;;7.73;6.70;;;3.40;99.90;;;;;;5013909;28;20178;-89
2023/04/05 07:45:09;;;;;;;7.40;6.57;;;3.50;99.90;;;;;;5013660;28;20186;-90
2023/04/05 07:47:35;;;;;;;9.33;7.00;;;3.60;99.90;;;;;;4998052;28;20190;-89
2023/04/05 07:50:01;;;;;;;8.03;7.10;;;3.70;99.90;;;;;;5013855;28;20179;-90
2023/04/05 07:52:27;;;;;;;8.90;6.57;;;3.90;99.90;;;;;;5013813;28;20236;-90
2023/04/05 07:54:54;;;;;;;8.23;6.93;;;4.00;99.90;;;;;;4997378;28;20198;-90
2023/04/05 07:57:20;;;;;;;9.73;6.60;;;3.90;99.90;;;;;;5030442;28;20195;-90
2023/04/05 07:59:49;;;;;;;9.17;6.97;;;3.80;99.90;;;;;;5013838;28;20182;-90
2023/04/05 08:02:16;;;;;;;9.53;7.30;;;4.00;99.90;;;;;;5030671;28;20175;-90
2023/04/05 08:04:42;;;;;;;9.17;6.00;;;4.10;99.90;;;;;;5015980;28;20241;-89
2023/04/05 08:07:08;;;;;;;9.00;6.40;;;4.40;99.90;;;;;;5016960;28;20194;-90
2023/04/05 08:09:35;;;;;;;10.17;6.50;;;4.70;99.90;;;;;;5017078;28;20213;-89
2023/04/05 08:12:05;;;;;;;8.60;6.53;;;4.90;99.90;;;;;;5017023;28;20218;-90
2023/04/05 08:14:31;;;;;;;6.97;5.40;;;5.00;99.90;;;;;;5016882;28;20174;-90
2023/04/05 08:16:56;;;;;;;9.93;6.60;;;5.30;99.90;;;;;;5017553;28;20203;-90
2023/04/05 08:19:22;;;;;;;8.47;6.13;;;5.40;99.90;;;;;;5017040;28;20215;-90
2023/04/05 08:21:48;;;;;;;9.20;6.07;;;5.60;99.90;;;;;;5017089;28;20277;-90
2023/04/05 08:24:14;;;;;;;6.70;5.73;;;5.80;99.90;;;;;;5034712;28;20179;-90
2023/04/05 08:26:42;;;;;;;8.13;5.90;;;6.00;99.90;;;;;;5034583;28;20196;-90
2023/04/05 08:29:08;;;;;;;5.97;5.37;;;6.20;99.90;;;;;;5016917;28;20175;-90
2023/04/05 08:31:33;;;;;;;8.77;5.80;;;6.20;99.90;;;;;;5016771;28;20203;-90
2023/04/05 08:33:59;;;;;;;8.47;5.27;;;6.40;99.90;;;;;;5016723;28;20271;-90
2023/04/05 08:36:25;;;;;;;7.60;5.20;;;6.40;99.90;;;;;;5016695;28;20200;-90
2023/04/05 08:38:51;;;;;;;6.07;5.40;;;6.50;99.90;;;;;;5016971;28;20207;-90
2023/04/05 08:41:22;;;;;;;6.67;5.10;;;6.70;99.90;;;;;;5000717;28;20202;-90
2023/04/05 08:44:04;;;;;;;7.57;5.70;;;6.80;99.90;;;;;;5016896;28;20181;-90
2023/04/05 08:46:34;;;;;;;6.77;5.53;;;7.00;99.90;;;;;;5016942;28;20296;-90
2023/04/05 08:49:07;;;;;;;6.30;4.83;;;6.80;99.90;;;;;;5016489;28;20181;-89
2023/04/05 08:51:38;;;;;;;5.67;4.80;;;7.00;99.90;;;;;;5016823;28;20208;-90
2023/04/05 08:54:04;;;;;;;7.27;4.80;;;7.20;99.90;;;;;;5016567;28;20169;-90
2023/04/05 08:56:34;;;;;;;5.90;4.60;;;6.90;99.90;;;;;;5016287;28;20227;-90
2023/04/05 08:59:07;;;;;;;6.13;5.10;;;7.00;99.90;;;;;;5016215;28;20177;-90
2023/04/05 09:01:36;;;;;;;6.13;4.90;;;7.00;99.90;;;;;;5016558;28;20182;-90
2023/04/05 09:04:08;;;;;;;5.83;4.87;;;7.00;99.90;;;;;;5054686;23;20173;-30
2023/04/05 09:06:35;;;;;;;5.43;4.03;;;7.30;99.90;;;;;;5005132;28;20214;-29
2023/04/05 09:09:05;;;;;;;5.63;4.27;;;7.70;99.90;;;;;;5023379;28;20227;-30
2023/04/05 09:11:32;;;;;;;4.87;4.10;;;7.80;99.90;;;;;;5032830;28;20178;-30
2023/04/05 09:13:58;;;;;;;5.30;4.00;;;7.90;99.90;;;;;;5035114;28;20274;-30
2023/04/05 09:16:26;;;;;;;9.70;5.90;;;7.70;99.90;;;;;;5001299;28;20205;-30
2023/04/05 09:18:51;;;;;;;6.73;5.70;;;7.90;99.90;;;;;;5041698;22;20222;-88
2023/04/05 09:21:18;;;;;;;6.60;5.73;;;8.10;99.90;;;;;;4999698;28;20182;-88
2023/04/05 09:23:52;;;;;;;4.83;4.20;;;8.30;99.90;;;;;;4999651;28;20177;-88
2023/04/05 09:26:25;;;;;;;5.03;4.00;;;8.40;99.90;;;;;;5005829;28;20202;-88
2023/04/05 09:28:57;;;;;;;5.30;4.03;;;8.40;99.90;;;;;;4996636;28;20217;-88
2023/04/05 09:31:36;;;;;;;5.17;3.87;;;7.90;99.90;;;;;;4996252;28;20205;-88
2023/04/05 09:34:07;;;;;;;4.70;4.07;;;8.20;99.90;;;;;;4996067;28;20183;-88
2023/04/05 09:36:34;;;;;;;5.40;3.70;;;8.40;99.90;;;;;;4992874;28;20202;-88
2023/04/05 09:39:09;;;;;;;4.53;4.00;;;8.60;99.90;;;;;;4992806;28;20172;-88
2023/04/05 09:41:36;;;;;;;7.33;4.17;;;8.90;99.90;;;;;;4992774;28;20206;-88
2023/04/05 09:44:02;;;;;;;4.93;3.83;;;9.00;99.90;;;;;;5009011;28;20176;-89
2023/04/05 09:46:30;;;;;;;4.90;4.00;;;9.00;99.90;;;;;;4992780;28;20199;-88
2023/04/05 09:48:56;;;;;;;5.57;4.13;;;9.00;99.90;;;;;;4992903;28;20211;-88
2023/04/05 09:51:22;;;;;;;4.10;3.70;;;8.60;99.90;;;;;;4976873;28;20628;-88
2023/04/05 09:54:08;;;;;;;6.67;4.30;;;8.60;99.90;;;;;;5008576;28;20215;-88
2023/04/05 09:56:39;;;;;;;6.03;4.10;;;8.10;99.90;;;;;;5008548;28;20230;-88
2023/04/05 09:59:09;;;;;;;6.50;4.00;;;7.90;99.90;;;;;;4992044;28;20176;-89
2023/04/05 10:01:42;;;;;;;5.77;4.20;;;8.20;99.90;;;;;;4991374;28;20180;-88
2023/04/05 10:04:08;;;;;;;5.67;3.50;;;8.60;99.90;;;;;;4995597;28;20229;-88
2023/04/05 10:06:41;;;;;;;4.33;3.20;;;8.90;99.90;;;;;;4979128;28;20215;-88
2023/04/05 10:09:09;;;;;;;6.30;3.70;;;9.20;99.90;;;;;;4979272;28;20217;-88
2023/04/05 10:11:36;;;;;;;8.47;3.60;;;9.30;99.90;;;;;;5013376;28;20242;-88
2023/04/05 10:14:07;;;;;;;5.20;3.67;;;9.40;99.90;;;;;;4995168;28;20195;-88
2023/04/05 10:16:56;;;;;;;5.30;3.87;;;9.50;99.90;;;;;;4979331;28;20203;-88
2023/04/05 10:19:51;;;;;;;4.93;3.90;;;9.30;99.90;;;;;;4997939;28;20219;-88
2023/04/05 10:22:27;;;;;;;5.10;3.53;;;9.40;99.90;;;;;;4994557;28;20199;-88
2023/04/05 10:25:00;;;;;;;3.63;3.10;;;8.90;99.90;;;;;;5011437;28;20277;-88
2023/04/05 10:27:34;;;;;;;5.20;3.33;;;9.20;99.90;;;;;;4994901;28;20214;-88
2023/04/05 10:30:07;;;;;;;6.57;4.23;;;9.50;99.90;;;;;;4979243;28;20172;-88
2023/04/05 10:32:45;;;;;;;5.53;4.30;;;9.60;99.90;;;;;;4995236;28;20210;-88
2023/04/05 10:35:23;;;;;;;4.90;3.63;;;9.80;99.90;;;;;;4995728;28;20242;-88
2023/04/05 10:38:17;;;;;;;4.07;3.63;;;10.10;99.90;;;;;;4972785;28;20184;-89
2023/04/05 10:40:47;;;;;;;5.63;4.13;;;10.40;99.90;;;;;;4972604;28;20165;-88
2023/04/05 10:43:18;;;;;;;3.80;3.40;;;10.40;99.90;;;;;;4956359;28;20191;-88
2023/04/05 10:45:47;;;;;;;4.57;3.93;;;9.40;99.90;;;;;;4955971;28;20235;-88
2023/04/05 10:48:27;;;;;;;3.43;3.13;;;9.20;99.90;;;;;;4956702;28;20180;-89
2023/04/05 10:50:53;;;;;;;5.73;3.63;;;9.50;99.90;;;;;;4972373;28;20232;-88
2023/04/05 10:53:21;;;;;;;4.30;3.73;;;9.80;99.90;;;;;;4956166;28;20247;-89
2023/04/05 10:55:48;;;;;;;4.27;3.87;;;10.00;99.90;;;;;;4972160;28;20200;-88
2023/04/05 10:58:15;;;;;;;4.50;3.77;;;10.30;99.90;;;;;;4956116;28;20181;-88
2023/04/05 11:00:41;;;;;;;4.47;3.90;;;10.40;99.90;;;;;;4956039;28;20208;-89
2023/04/05 11:03:07;;;;;;;5.00;4.30;;;10.70;99.90;;;;;;4973603;28;20671;-89
2023/04/05 11:05:36;;;;;;;5.27;3.87;;;10.70;99.90;;;;;;4975097;28;20206;-89
2023/04/05 11:08:07;;;;;;;5.07;3.80;;;10.70;99.90;;;;;;4976977;28;20181;-89
2023/04/05 11:10:37;;;;;;;3.80;3.50;;;10.70;99.90;;;;;;4959613;28;20253;-89
2023/04/05 11:13:05;;;;;;;6.63;4.70;;;11.00;99.90;;;;;;4972455;28;20208;-89
2023/04/05 11:15:33;;;;;;;6.47;4.27;;;10.90;99.90;;;;;;4956244;28;20233;-89
2023/04/05 11:18:09;;;;;;;6.67;4.27;;;11.10;99.90;;;;;;4979049;28;20297;-89
2023/04/05 11:20:50;;;;;;;4.83;4.07;;;11.30;99.90;;;;;;4989075;28;20190;-89
2023/04/05 11:23:18;;;;;;;4.80;4.00;;;11.20;99.80;;;;;;4972931;28;20178;-89
2023/04/05 11:25:51;;;;;;;5.77;3.80;;;11.40;99.90;;;;;;4972715;28;20218;-89
2023/04/05 11:28:39;;;;;;;4.70;4.20;;;11.60;99.90;;;;;;4957410;28;20179;-88
2023/04/05 11:31:25;;;;;;;4.97;3.87;;;11.80;99.90;;;;;;4973090;28;20179;-89
2023/04/05 11:33:59;;;;;;;5.87;3.30;;;11.90;99.90;;;;;;4975719;28;20218;-90
2023/04/05 11:36:32;;;;;;;4.20;3.80;;;11.90;99.90;;;;;;4969570;28;20251;-89
2023/04/05 11:39:17;;;;;;;4.40;3.90;;;12.10;99.20;;;;;;4981087;28;20186;-89
2023/04/05 11:41:52;;;;;;;4.83;4.17;;;11.90;98.40;;;;;;4983968;28;20257;-89
2023/04/05 11:44:25;;;;;;;6.03;4.43;;;12.00;99.20;;;;;;5000229;28;20234;-89
2023/04/05 11:46:52;;;;;;;6.23;4.50;;;12.00;99.90;;;;;;4999698;28;20211;-89
2023/04/05 11:49:22;;;;;;;5.27;4.53;;;11.40;98.60;;;;;;4998000;28;20185;-89
2023/04/05 11:51:50;;;;;;;5.67;4.80;;;11.40;99.40;;;;;;4980520;28;20281;-88
2023/04/05 11:54:32;;;;;;;5.90;4.37;;;11.70;99.90;;;;;;4979514;28;20264;-89
2023/04/05 11:56:58;;;;;;;4.87;4.00;;;11.30;98.10;;;;;;4995929;28;20208;-89
2023/04/05 11:59:32;;;;;;;4.97;4.47;;;11.60;99.10;;;;;;4994735;28;20185;-89
2023/04/05 12:02:00;;;;;;;5.53;4.50;;;12.00;99.90;;;;;;4995983;28;20174;-89
2023/04/05 12:04:25;;;;;;;7.13;4.80;;;12.30;98.70;;;;;;4995710;28;20211;-89
2023/04/05 12:07:15;;;;;;;5.90;4.73;;;12.60;99.20;;;;;;4994332;28;20227;-89
2023/04/05 12:10:07;;;;;;;5.33;4.27;;;12.80;98.00;;;;;;5000828;28;20178;-89
2023/04/05 12:12:37;;;;;;;5.13;4.10;;;13.00;98.40;;;;;;5003673;28;20208;-89
2023/04/05 12:15:07;;;;;;;10.57;5.57;;;13.00;95.30;;;;;;5003244;28;20219;-89
2023/04/05 12:17:53;;;;;;;5.73;4.50;;;12.50;96.90;;;;;;5018493;28;20184;-89
2023/04/05 12:20:23;;;;;;;5.50;4.10;;;12.60;97.00;;;;;;4987674;28;20194;-89
2023/04/05 12:22:51;;;;;;;6.30;4.80;;;12.90;96.80;;;;;;5020263;28;20208;-89
2023/04/05 12:25:18;;;;;;;6.10;5.00;;;13.00;97.00;;;;;;5002958;28;20187;-89
2023/04/05 12:27:44;;;;;;;5.73;4.40;;;13.30;97.10;;;;;;5033820;28;20177;-89
2023/04/05 12:30:15;;;;;;;5.70;4.63;;;13.20;97.80;;;;;;5004887;28;20187;-89
2023/04/05 12:32:49;;;;;;;6.10;4.87;;;13.20;97.80;;;;;;5003287;28;20212;-89
2023/04/05 12:35:20;;;;;;;6.40;5.00;;;12.60;94.50;;;;;;5002619;28;20215;-89
2023/04/05 12:37:46;;;;;;;5.83;5.10;;;12.00;95.70;;;;;;4993187;28;20171;-89
2023/04/05 12:40:13;;;;;;;7.67;5.20;;;11.60;95.90;;;;;;4967798;28;20187;-89
2023/04/05 12:42:40;;;;;;;6.10;5.50;;;11.90;96.60;;;;;;4968113;28;20192;-89
2023/04/05 12:45:10;;;;;;;6.60;4.70;;;11.40;95.50;;;;;;4967278;28;20187;-89
2023/04/05 12:47:51;;;;;;;5.43;4.77;;;11.40;94.80;;;;;;4967263;28;20286;-89
2023/04/05 12:50:18;;;;;;;5.37;4.70;;;11.60;97.90;;;;;;4966844;28;20179;-89
2023/04/05 12:52:58;;;;;;;5.50;5.00;;;11.80;95.20;;;;;;4968094;28;20225;-89
2023/04/05 12:55:28;;;;;;;5.37;4.87;;;11.70;97.30;;;;;;4968424;28;20175;-89
2023/04/05 12:57:58;;;;;;;6.23;4.90;;;11.40;94.30;;;;;;4967952;28;20178;-89
2023/04/05 13:00:26;;;;;;;5.20;4.70;;;11.50;95.10;;;;;;4985264;28;20186;-89
2023/04/05 13:02:57;;;;;;;4.73;4.30;;;11.80;95.90;;;;;;4968502;28;20188;-89
2023/04/05 13:05:26;;;;;;;8.17;5.13;;;12.40;96.40;;;;;;4995729;28;20201;-88
2023/04/05 13:07:52;;;;;;;5.33;4.07;;;12.80;97.40;;;;;;5009004;28;20179;-90
2023/04/05 13:10:19;;;;;;;5.00;4.30;;;13.30;96.40;;;;;;5003418;28;20239;-89
2023/04/05 13:12:46;;;;;;;4.50;4.00;;;13.50;95.50;;;;;;5020223;28;20215;-89
2023/04/05 13:15:13;;;;;;;5.10;4.60;;;13.00;94.30;;;;;;4971086;28;20210;-89
2023/04/05 13:17:40;;;;;;;6.03;4.73;;;12.80;94.60;;;;;;4986936;28;20212;-89
2023/04/05 13:20:07;;;;;;;5.20;4.20;;;12.90;96.30;;;;;;5002938;28;20180;-89
2023/04/05 13:22:33;;;;;;;6.03;4.70;;;12.90;93.80;;;;;;4986432;28;20179;-89
2023/04/05 13:24:59;;;;;;;4.73;4.00;;;13.00;94.50;;;;;;4986639;28;20248;-89
2023/04/05 13:27:24;;;;;;;5.60;4.50;;;13.20;93.60;;;;;;4986344;28;20225;-89
2023/04/05 13:29:50;;;;;;;5.00;4.30;;;13.30;92.70;;;;;;5002025;28;20194;-89
2023/04/05 13:32:16;;;;;;;5.00;3.97;;;12.50;92.30;;;;;;4986868;28;20214;-89
2023/04/05 13:34:42;;;;;;;5.77;4.57;;;12.60;93.80;;;;;;4984237;28;20194;-89
2023/04/05 13:37:08;;;;;;;8.23;4.50;;;12.80;92.80;;;;;;4966856;28;20199;-89
2023/04/05 13:39:34;;;;;;;5.33;4.60;;;13.00;93.50;;;;;;5003018;28;20202;-89
2023/04/05 13:42:00;;;;;;;4.90;4.17;;;12.70;92.50;;;;;;5002842;28;20258;-89
2023/04/05 13:44:26;;;;;;;6.50;3.93;;;12.70;92.10;;;;;;5002229;28;20176;-89
2023/04/05 13:46:52;;;;;;;5.10;4.60;;;13.00;92.80;;;;;;4986445;28;20234;-89
2023/04/05 13:49:18;;;;;;;4.90;4.40;;;12.90;91.70;;;;;;5002226;28;20187;-89
2023/04/05 13:51:44;;;;;;;4.37;3.97;;;12.80;93.00;;;;;;4986377;28;20194;-89
2023/04/05 13:54:10;;;;;;;5.60;4.13;;;13.00;92.00;;;;;;5001784;28;20179;-89
2023/04/05 13:56:37;;;;;;;5.30;4.80;;;13.20;92.80;;;;;;5001966;28;20200;-89
2023/04/05 13:59:03;;;;;;;6.10;4.50;;;13.30;92.90;;;;;;5002067;28;20242;-89
2023/04/05 14:01:29;;;;;;;8.13;5.17;;;13.30;92.20;;;;;;5001001;28;20211;-89
2023/04/05 14:03:55;;;;;;;4.80;4.33;;;13.00;92.10;;;;;;4999652;28;20200;-89
2023/04/05 14:06:21;;;;;;;6.53;4.77;;;13.20;91.90;;;;;;5000510;28;20211;-89
2023/04/05 14:08:47;;;;;;;5.57;4.80;;;13.40;91.30;;;;;;4985855;28;20200;-89
2023/04/05 14:11:13;;;;;;;5.27;4.50;;;13.30;91.80;;;;;;4985574;28;20176;-89
2023/04/05 14:13:39;;;;;;;4.97;4.47;;;13.00;92.00;;;;;;5002418;28;20222;-89
2023/04/05 14:16:05;;;;;;;4.47;4.07;;;13.00;92.80;;;;;;4985977;28;20206;-89